sensor_id;sensor_type;location;lat;lon;timestamp;pressure;altitude;pressure_sealevel;temperature;humidity
26487;BME280;14425;56.136;40.360;2022-08-21T00:01:02;100748.06;;;17.27;48.53
26487;BME280;14425;56.136;40.360;2022-08-21T00:03:28;100753.44;;;17.02;49.10
26487;BME280;14425;56.136;40.360;2022-08-21T00:05:54;100742.69;;;17.21;49.02
26487;BME280;14425;56.136;40.360;2022-08-21T00:08:20;100755.28;;;17.04;48.89
26487;BME280;14425;56.136;40.360;2022-08-21T00:10:48;100745.69;;;17.03;49.01
26487;BME280;14425;56.136;40.360;2022-08-21T00:13:16;100749.84;;;15.78;52.21
26487;BME280;14425;56.136;40.360;2022-08-21T00:15:42;100751.75;;;15.31;53.65
26487;BME280;14425;56.136;40.360;2022-08-21T00:18:20;100751.75;;;15.31;53.92
26487;BME280;14425;56.136;40.360;2022-08-21T00:20:57;100761.50;;;15.38;53.21
26487;BME280;14425;56.136;40.360;2022-08-21T00:23:29;100756.34;;;15.40;53.30
26487;BME280;14425;56.136;40.360;2022-08-21T00:26:08;100755.09;;;15.28;54.19
26487;BME280;14425;56.136;40.360;2022-08-21T00:28:37;100760.47;;;15.33;53.80
26487;BME280;14425;56.136;40.360;2022-08-21T00:31:03;100758.22;;;15.44;53.18
26487;BME280;14425;56.136;40.360;2022-08-21T00:33:29;100756.50;;;15.44;53.51
26487;BME280;14425;56.136;40.360;2022-08-21T00:35:55;100760.63;;;15.38;53.68
26487;BME280;14425;56.136;40.360;2022-08-21T00:38:21;100752.63;;;15.31;54.24
26487;BME280;14425;56.136;40.360;2022-08-21T00:40:50;100753.31;;;15.26;54.27
26487;BME280;14425;56.136;40.360;2022-08-21T00:43:21;100753.78;;;15.15;54.79
26487;BME280;14425;56.136;40.360;2022-08-21T00:45:47;100752.44;;;15.27;54.29
26487;BME280;14425;56.136;40.360;2022-08-21T00:50:44;100747.88;;;15.45;53.00
26487;BME280;14425;56.136;40.360;2022-08-21T00:53:11;100745.31;;;15.47;53.04
26487;BME280;14425;56.136;40.360;2022-08-21T00:55:37;100745.41;;;15.50;52.70
26487;BME280;14425;56.136;40.360;2022-08-21T00:58:04;100742.72;;;15.47;53.01
26487;BME280;14425;56.136;40.360;2022-08-21T01:00:32;100748.66;;;15.43;53.11
26487;BME280;14425;56.136;40.360;2022-08-21T01:02:59;100744.97;;;15.36;53.02
26487;BME280;14425;56.136;40.360;2022-08-21T01:05:25;100748.72;;;15.44;52.85
26487;BME280;14425;56.136;40.360;2022-08-21T01:07:56;100748.59;;;15.41;52.81
26487;BME280;14425;56.136;40.360;2022-08-21T01:10:24;100746.28;;;15.50;52.54
26487;BME280;14425;56.136;40.360;2022-08-21T01:12:56;100749.53;;;15.43;53.00
26487;BME280;14425;56.136;40.360;2022-08-21T01:15:26;100745.84;;;15.37;53.09
26487;BME280;14425;56.136;40.360;2022-08-21T01:17:56;100753.59;;;15.35;53.82
26487;BME280;14425;56.136;40.360;2022-08-21T01:20:24;100746.09;;;15.19;54.42
26487;BME280;14425;56.136;40.360;2022-08-21T01:22:50;100748.53;;;15.14;54.27
26487;BME280;14425;56.136;40.360;2022-08-21T01:25:16;100746.41;;;15.02;55.62
26487;BME280;14425;56.136;40.360;2022-08-21T01:27:44;100745.66;;;14.81;56.02
26487;BME280;14425;56.136;40.360;2022-08-21T01:30:12;100750.94;;;15.08;55.42
26487;BME280;14425;56.136;40.360;2022-08-21T01:32:39;100753.28;;;15.00;55.96
26487;BME280;14425;56.136;40.360;2022-08-21T01:35:05;100751.19;;;14.90;56.08
26487;BME280;14425;56.136;40.360;2022-08-21T01:37:31;100752.50;;;14.78;56.47
26487;BME280;14425;56.136;40.360;2022-08-21T01:39:56;100746.22;;;14.72;57.55
26487;BME280;14425;56.136;40.360;2022-08-21T01:42:22;100746.44;;;14.78;56.90
26487;BME280;14425;56.136;40.360;2022-08-21T01:44:48;100753.44;;;14.81;56.84
26487;BME280;14425;56.136;40.360;2022-08-21T01:47:14;100752.63;;;14.82;56.76
26487;BME280;14425;56.136;40.360;2022-08-21T01:49:40;100754.94;;;14.74;57.02
26487;BME280;14425;56.136;40.360;2022-08-21T01:52:06;100752.19;;;14.69;57.71
26487;BME280;14425;56.136;40.360;2022-08-21T01:54:32;100752.13;;;14.68;57.23
26487;BME280;14425;56.136;40.360;2022-08-21T01:56:58;100755.72;;;14.71;57.22
26487;BME280;14425;56.136;40.360;2022-08-21T01:59:24;100754.13;;;14.75;56.82
26487;BME280;14425;56.136;40.360;2022-08-21T02:01:50;100744.16;;;14.87;56.21
26487;BME280;14425;56.136;40.360;2022-08-21T02:04:16;100748.75;;;14.94;55.51
26487;BME280;14425;56.136;40.360;2022-08-21T02:06:44;100739.34;;;14.98;54.93
26487;BME280;14425;56.136;40.360;2022-08-21T02:09:10;100736.75;;;14.98;55.16
26487;BME280;14425;56.136;40.360;2022-08-21T02:11:36;100732.47;;;15.00;55.25
26487;BME280;14425;56.136;40.360;2022-08-21T02:14:12;100745.00;;;14.86;55.83
26487;BME280;14425;56.136;40.360;2022-08-21T02:16:42;100741.94;;;14.74;56.67
26487;BME280;14425;56.136;40.360;2022-08-21T02:19:09;100747.25;;;14.77;56.64
26487;BME280;14425;56.136;40.360;2022-08-21T02:21:34;100751.41;;;14.72;56.74
26487;BME280;14425;56.136;40.360;2022-08-21T02:24:00;100753.94;;;14.70;57.15
26487;BME280;14425;56.136;40.360;2022-08-21T02:26:27;100757.47;;;14.72;56.39
26487;BME280;14425;56.136;40.360;2022-08-21T02:28:53;100759.13;;;14.70;56.98
26487;BME280;14425;56.136;40.360;2022-08-21T02:31:19;100751.13;;;14.64;56.96
26487;BME280;14425;56.136;40.360;2022-08-21T02:33:45;100754.66;;;14.66;57.32
26487;BME280;14425;56.136;40.360;2022-08-21T02:36:13;100745.22;;;14.68;56.68
26487;BME280;14425;56.136;40.360;2022-08-21T02:38:40;100747.25;;;14.77;55.95
26487;BME280;14425;56.136;40.360;2022-08-21T02:41:07;100748.31;;;14.82;55.92
26487;BME280;14425;56.136;40.360;2022-08-21T02:43:33;100750.75;;;14.77;56.31
26487;BME280;14425;56.136;40.360;2022-08-21T02:45:59;100753.38;;;14.79;56.14
26487;BME280;14425;56.136;40.360;2022-08-21T02:48:29;100752.63;;;14.82;56.31
26487;BME280;14425;56.136;40.360;2022-08-21T02:50:56;100761.09;;;14.76;56.71
26487;BME280;14425;56.136;40.360;2022-08-21T02:53:23;100750.41;;;14.68;57.03
26487;BME280;14425;56.136;40.360;2022-08-21T02:55:50;100753.72;;;14.64;56.72
26487;BME280;14425;56.136;40.360;2022-08-21T03:00:46;100750.47;;;14.70;57.36
26487;BME280;14425;56.136;40.360;2022-08-21T03:03:12;100749.91;;;14.78;56.82
26487;BME280;14425;56.136;40.360;2022-08-21T03:05:38;100756.38;;;14.90;55.73
26487;BME280;14425;56.136;40.360;2022-08-21T03:08:07;100753.00;;;14.92;55.55
26487;BME280;14425;56.136;40.360;2022-08-21T03:10:37;100754.81;;;14.95;55.72
26487;BME280;14425;56.136;40.360;2022-08-21T03:13:03;100762.09;;;15.05;55.37
26487;BME280;14425;56.136;40.360;2022-08-21T03:15:29;100756.03;;;15.05;56.08
26487;BME280;14425;56.136;40.360;2022-08-21T03:17:55;100763.59;;;14.99;55.62
26487;BME280;14425;56.136;40.360;2022-08-21T03:20:22;100750.66;;;15.00;55.98
26487;BME280;14425;56.136;40.360;2022-08-21T03:22:49;100763.44;;;14.94;56.39
26487;BME280;14425;56.136;40.360;2022-08-21T03:25:15;100765.22;;;14.95;55.96
26487;BME280;14425;56.136;40.360;2022-08-21T03:27:41;100769.72;;;14.99;56.53
26487;BME280;14425;56.136;40.360;2022-08-21T03:30:07;100760.84;;;14.94;56.34
26487;BME280;14425;56.136;40.360;2022-08-21T03:32:33;100754.13;;;14.99;57.01
26487;BME280;14425;56.136;40.360;2022-08-21T03:34:59;100758.81;;;15.09;56.79
26487;BME280;14425;56.136;40.360;2022-08-21T03:37:25;100765.84;;;15.13;56.15
26487;BME280;14425;56.136;40.360;2022-08-21T03:39:51;100755.69;;;15.20;56.11
26487;BME280;14425;56.136;40.360;2022-08-21T03:42:16;100768.22;;;15.31;55.62
26487;BME280;14425;56.136;40.360;2022-08-21T03:44:42;100764.84;;;15.34;55.44
26487;BME280;14425;56.136;40.360;2022-08-21T03:47:08;100755.25;;;15.33;56.10
26487;BME280;14425;56.136;40.360;2022-08-21T03:49:34;100759.44;;;15.28;55.83
26487;BME280;14425;56.136;40.360;2022-08-21T03:52:00;100766.38;;;15.29;55.68
26487;BME280;14425;56.136;40.360;2022-08-21T03:54:26;100764.09;;;15.38;56.07
26487;BME280;14425;56.136;40.360;2022-08-21T03:56:56;100760.47;;;15.33;56.21
26487;BME280;14425;56.136;40.360;2022-08-21T03:59:22;100759.81;;;15.40;55.92
26487;BME280;14425;56.136;40.360;2022-08-21T04:01:52;100773.78;;;15.42;56.30
26487;BME280;14425;56.136;40.360;2022-08-21T04:04:18;100770.34;;;15.43;56.04
26487;BME280;14425;56.136;40.360;2022-08-21T04:06:44;100760.00;;;15.45;55.52
26487;BME280;14425;56.136;40.360;2022-08-21T04:09:10;100754.16;;;15.52;55.61
26487;BME280;14425;56.136;40.360;2022-08-21T04:11:38;100752.25;;;15.46;55.97
26487;BME280;14425;56.136;40.360;2022-08-21T04:14:04;100756.91;;;15.57;56.04
26487;BME280;14425;56.136;40.360;2022-08-21T04:16:30;100752.91;;;15.66;55.42
26487;BME280;14425;56.136;40.360;2022-08-21T04:18:56;100758.09;;;15.66;55.77
26487;BME280;14425;56.136;40.360;2022-08-21T04:21:21;100757.69;;;15.80;55.70
26487;BME280;14425;56.136;40.360;2022-08-21T04:23:48;100755.34;;;15.87;55.36
26487;BME280;14425;56.136;40.360;2022-08-21T04:26:14;100763.25;;;15.91;56.24
26487;BME280;14425;56.136;40.360;2022-08-21T04:28:40;100760.59;;;15.89;56.13
26487;BME280;14425;56.136;40.360;2022-08-21T04:31:06;100769.53;;;15.97;56.42
26487;BME280;14425;56.136;40.360;2022-08-21T04:33:32;100766.41;;;16.09;55.22
26487;BME280;14425;56.136;40.360;2022-08-21T04:35:58;100761.84;;;16.31;53.63
26487;BME280;14425;56.136;40.360;2022-08-21T04:38:24;100767.22;;;16.37;53.45
26487;BME280;14425;56.136;40.360;2022-08-21T04:40:49;100768.34;;;16.45;52.85
26487;BME280;14425;56.136;40.360;2022-08-21T04:43:15;100766.69;;;16.47;52.15
26487;BME280;14425;56.136;40.360;2022-08-21T04:45:42;100768.47;;;16.50;51.98
26487;BME280;14425;56.136;40.360;2022-08-21T04:48:18;100768.84;;;16.62;51.42
26487;BME280;14425;56.136;40.360;2022-08-21T04:50:47;100756.56;;;16.87;52.19
26487;BME280;14425;56.136;40.360;2022-08-21T04:53:18;100759.00;;;16.82;51.05
26487;BME280;14425;56.136;40.360;2022-08-21T04:55:45;100759.00;;;16.82;51.42
26487;BME280;14425;56.136;40.360;2022-08-21T05:00:42;100764.94;;;17.08;50.99
26487;BME280;14425;56.136;40.360;2022-08-21T05:03:08;100767.69;;;17.14;51.24
26487;BME280;14425;56.136;40.360;2022-08-21T05:05:35;100762.56;;;17.17;50.51
26487;BME280;14425;56.136;40.360;2022-08-21T05:08:02;100765.47;;;17.28;50.21
26487;BME280;14425;56.136;40.360;2022-08-21T05:10:27;100770.25;;;17.46;50.04
26487;BME280;14425;56.136;40.360;2022-08-21T05:12:53;100768.13;;;17.65;50.00
26487;BME280;14425;56.136;40.360;2022-08-21T05:15:19;100776.94;;;17.70;49.88
26487;BME280;14425;56.136;40.360;2022-08-21T05:17:47;100769.63;;;17.55;49.06
26487;BME280;14425;56.136;40.360;2022-08-21T05:20:13;100766.44;;;17.67;49.44
26487;BME280;14425;56.136;40.360;2022-08-21T05:22:39;100758.28;;;17.89;48.92
26487;BME280;14425;56.136;40.360;2022-08-21T05:25:05;100758.66;;;18.05;48.07
26487;BME280;14425;56.136;40.360;2022-08-21T05:27:37;100757.75;;;18.04;47.70
26487;BME280;14425;56.136;40.360;2022-08-21T05:30:04;100754.59;;;18.19;47.05
26487;BME280;14425;56.136;40.360;2022-08-21T05:32:30;100757.47;;;18.30;46.69
26487;BME280;14425;56.136;40.360;2022-08-21T05:34:56;100762.03;;;18.40;47.00
26487;BME280;14425;56.136;40.360;2022-08-21T05:37:22;100758.72;;;18.49;46.81
26487;BME280;14425;56.136;40.360;2022-08-21T05:39:47;100764.75;;;18.45;46.81
26487;BME280;14425;56.136;40.360;2022-08-21T05:42:13;100760.09;;;18.73;47.09
26487;BME280;14425;56.136;40.360;2022-08-21T05:44:38;100752.59;;;18.90;46.27
26487;BME280;14425;56.136;40.360;2022-08-21T05:47:06;100755.75;;;19.17;45.84
26487;BME280;14425;56.136;40.360;2022-08-21T05:49:32;100744.94;;;19.49;45.15
26487;BME280;14425;56.136;40.360;2022-08-21T05:51:57;100754.00;;;19.70;44.30
26487;BME280;14425;56.136;40.360;2022-08-21T05:54:26;100749.66;;;19.72;43.60
26487;BME280;14425;56.136;40.360;2022-08-21T05:56:54;100750.22;;;20.07;43.22
26487;BME280;14425;56.136;40.360;2022-08-21T05:59:20;100748.22;;;20.54;43.05
26487;BME280;14425;56.136;40.360;2022-08-21T06:01:46;100747.50;;;20.65;42.40
26487;BME280;14425;56.136;40.360;2022-08-21T06:04:13;100753.06;;;20.95;42.90
26487;BME280;14425;56.136;40.360;2022-08-21T06:06:41;100756.00;;;21.26;41.73
26487;BME280;14425;56.136;40.360;2022-08-21T06:09:08;100760.13;;;21.00;40.37
26487;BME280;14425;56.136;40.360;2022-08-21T06:11:34;100755.09;;;21.22;40.09
26487;BME280;14425;56.136;40.360;2022-08-21T06:14:01;100749.69;;;21.03;40.21
26487;BME280;14425;56.136;40.360;2022-08-21T06:16:26;100745.81;;;21.55;39.41
26487;BME280;14425;56.136;40.360;2022-08-21T06:18:52;100751.03;;;21.52;39.33
26487;BME280;14425;56.136;40.360;2022-08-21T06:21:18;100743.00;;;21.39;38.86
26487;BME280;14425;56.136;40.360;2022-08-21T06:23:48;100746.84;;;21.78;38.91
26487;BME280;14425;56.136;40.360;2022-08-21T06:29:14;100734.94;;;22.33;36.79
26487;BME280;14425;56.136;40.360;2022-08-21T06:34:39;100723.69;;;22.79;36.51
26487;BME280;14425;56.136;40.360;2022-08-21T06:37:42;100720.19;;;22.89;36.23
26487;BME280;14425;56.136;40.360;2022-08-21T06:40:16;100712.38;;;23.21;36.25
26487;BME280;14425;56.136;40.360;2022-08-21T06:42:42;100708.00;;;23.20;35.27
26487;BME280;14425;56.136;40.360;2022-08-21T06:45:09;100715.84;;;23.03;34.79
26487;BME280;14425;56.136;40.360;2022-08-21T06:47:34;100715.91;;;23.54;34.66
26487;BME280;14425;56.136;40.360;2022-08-21T06:50:00;100708.84;;;23.69;34.31
26487;BME280;14425;56.136;40.360;2022-08-21T06:52:26;100698.13;;;24.35;32.87
26487;BME280;14425;56.136;40.360;2022-08-21T06:54:51;100701.53;;;24.63;32.65
26487;BME280;14425;56.136;40.360;2022-08-21T06:57:17;100697.41;;;23.96;32.40
26487;BME280;14425;56.136;40.360;2022-08-21T06:59:43;100698.25;;;24.04;31.98
26487;BME280;14425;56.136;40.360;2022-08-21T07:02:09;100700.06;;;23.88;32.65
26487;BME280;14425;56.136;40.360;2022-08-21T07:04:36;100697.41;;;23.97;32.24
26487;BME280;14425;56.136;40.360;2022-08-21T07:07:06;100691.13;;;24.35;32.09
26487;BME280;14425;56.136;40.360;2022-08-21T07:09:31;100695.53;;;24.29;31.99
26487;BME280;14425;56.136;40.360;2022-08-21T07:12:01;100698.75;;;24.89;31.67
26487;BME280;14425;56.136;40.360;2022-08-21T07:14:27;100701.56;;;24.52;30.53
26487;BME280;14425;56.136;40.360;2022-08-21T07:16:53;100700.72;;;24.46;31.48
26487;BME280;14425;56.136;40.360;2022-08-21T07:19:19;100702.47;;;24.45;31.27
26487;BME280;14425;56.136;40.360;2022-08-21T07:21:46;100698.91;;;24.59;31.35
26487;BME280;14425;56.136;40.360;2022-08-21T07:24:12;100707.47;;;24.99;31.33
26487;BME280;14425;56.136;40.360;2022-08-21T07:26:46;100701.13;;;25.28;31.39
26487;BME280;14425;56.136;40.360;2022-08-21T07:29:11;100708.03;;;25.40;30.70
26487;BME280;14425;56.136;40.360;2022-08-21T07:31:38;100699.44;;;25.15;30.16
26487;BME280;14425;56.136;40.360;2022-08-21T07:34:04;100692.53;;;24.97;29.96
26487;BME280;14425;56.136;40.360;2022-08-21T07:36:30;100692.91;;;25.62;29.74
26487;BME280;14425;56.136;40.360;2022-08-21T07:38:55;100690.56;;;26.16;29.12
26487;BME280;14425;56.136;40.360;2022-08-21T07:41:23;100689.91;;;25.96;29.23
26487;BME280;14425;56.136;40.360;2022-08-21T07:43:52;100691.03;;;25.72;29.02
26487;BME280;14425;56.136;40.360;2022-08-21T07:46:18;100698.56;;;25.14;29.75
26487;BME280;14425;56.136;40.360;2022-08-21T07:48:44;100689.34;;;25.63;29.32
26487;BME280;14425;56.136;40.360;2022-08-21T07:51:12;100680.03;;;26.13;28.56
26487;BME280;14425;56.136;40.360;2022-08-21T07:53:48;100682.38;;;26.38;28.09
26487;BME280;14425;56.136;40.360;2022-08-21T07:56:14;100680.94;;;26.09;27.38
26487;BME280;14425;56.136;40.360;2022-08-21T07:58:39;100670.44;;;26.73;27.20
26487;BME280;14425;56.136;40.360;2022-08-21T08:01:05;100672.72;;;27.49;27.13
26487;BME280;14425;56.136;40.360;2022-08-21T08:03:31;100669.22;;;26.92;26.68
26487;BME280;14425;56.136;40.360;2022-08-21T08:05:57;100669.72;;;26.59;26.68
26487;BME280;14425;56.136;40.360;2022-08-21T08:08:23;100667.94;;;27.20;26.63
26487;BME280;14425;56.136;40.360;2022-08-21T08:10:48;100664.72;;;27.52;25.67
26487;BME280;14425;56.136;40.360;2022-08-21T08:13:15;100662.03;;;27.02;25.86
26487;BME280;14425;56.136;40.360;2022-08-21T08:15:40;100660.41;;;27.46;25.43
26487;BME280;14425;56.136;40.360;2022-08-21T08:18:06;100665.13;;;26.75;26.19
26487;BME280;14425;56.136;40.360;2022-08-21T08:20:41;100664.19;;;27.33;25.80
26487;BME280;14425;56.136;40.360;2022-08-21T08:23:09;100665.38;;;27.65;25.08
26487;BME280;14425;56.136;40.360;2022-08-21T08:25:35;100666.78;;;26.80;25.17
26487;BME280;14425;56.136;40.360;2022-08-21T08:28:00;100657.09;;;26.79;25.51
26487;BME280;14425;56.136;40.360;2022-08-21T08:30:34;100663.97;;;26.89;25.40
26487;BME280;14425;56.136;40.360;2022-08-21T08:33:02;100658.56;;;26.99;25.60
26487;BME280;14425;56.136;40.360;2022-08-21T08:35:28;100651.47;;;27.52;25.27
26487;BME280;14425;56.136;40.360;2022-08-21T08:37:54;100657.69;;;26.98;25.10
26487;BME280;14425;56.136;40.360;2022-08-21T08:40:22;100649.31;;;27.24;25.19
26487;BME280;14425;56.136;40.360;2022-08-21T08:42:54;100655.13;;;26.94;25.56
26487;BME280;14425;56.136;40.360;2022-08-21T08:45:20;100627.13;;;27.33;25.22
26487;BME280;14425;56.136;40.360;2022-08-21T08:47:52;100639.00;;;27.59;24.19
26487;BME280;14425;56.136;40.360;2022-08-21T08:50:26;100638.66;;;28.21;23.75
26487;BME280;14425;56.136;40.360;2022-08-21T08:53:05;100641.75;;;27.01;24.77
26487;BME280;14425;56.136;40.360;2022-08-21T08:55:36;100643.78;;;27.40;24.58
26487;BME280;14425;56.136;40.360;2022-08-21T08:58:02;100649.38;;;27.21;25.10
26487;BME280;14425;56.136;40.360;2022-08-21T09:00:28;100635.94;;;27.79;25.29
26487;BME280;14425;56.136;40.360;2022-08-21T09:02:55;100634.38;;;28.14;25.08
26487;BME280;14425;56.136;40.360;2022-08-21T09:05:26;100623.34;;;27.90;24.75
26487;BME280;14425;56.136;40.360;2022-08-21T09:10:22;100619.22;;;28.19;25.47
26487;BME280;14425;56.136;40.360;2022-08-21T09:18:11;100610.59;;;28.50;24.67
26487;BME280;14425;56.136;40.360;2022-08-21T09:20:54;100612.38;;;28.49;24.55
26487;BME280;14425;56.136;40.360;2022-08-21T09:26:11;100606.44;;;27.52;25.54
26487;BME280;14425;56.136;40.360;2022-08-21T09:28:38;100596.94;;;29.03;24.44
26487;BME280;14425;56.136;40.360;2022-08-21T09:31:07;100606.59;;;28.71;23.45
26487;BME280;14425;56.136;40.360;2022-08-21T09:33:34;100601.78;;;28.48;23.43
26487;BME280;14425;56.136;40.360;2022-08-21T09:35:59;100594.69;;;28.48;23.11
26487;BME280;14425;56.136;40.360;2022-08-21T09:38:32;100603.63;;;28.46;21.93
26487;BME280;14425;56.136;40.360;2022-08-21T09:41:00;100603.19;;;28.66;21.96
26487;BME280;14425;56.136;40.360;2022-08-21T09:43:28;100598.72;;;28.27;22.11
26487;BME280;14425;56.136;40.360;2022-08-21T09:46:03;100589.28;;;28.53;21.29
26487;BME280;14425;56.136;40.360;2022-08-21T09:48:29;100589.19;;;28.18;21.77
26487;BME280;14425;56.136;40.360;2022-08-21T09:51:10;100608.44;;;28.28;21.64
26487;BME280;14425;56.136;40.360;2022-08-21T09:53:37;100593.53;;;28.23;21.83
26487;BME280;14425;56.136;40.360;2022-08-21T09:56:16;100601.59;;;28.57;21.61
26487;BME280;14425;56.136;40.360;2022-08-21T09:59:00;100596.88;;;28.31;21.87
26487;BME280;14425;56.136;40.360;2022-08-21T10:01:26;100589.56;;;28.41;21.82
26487;BME280;14425;56.136;40.360;2022-08-21T10:04:04;100587.41;;;28.96;21.08
26487;BME280;14425;56.136;40.360;2022-08-21T10:06:33;100583.53;;;29.07;21.08
26487;BME280;14425;56.136;40.360;2022-08-21T10:09:04;100575.16;;;29.56;21.02
26487;BME280;14425;56.136;40.360;2022-08-21T10:11:30;100576.09;;;28.87;21.68
26487;BME280;14425;56.136;40.360;2022-08-21T10:19:04;100577.47;;;29.02;21.36
26487;BME280;14425;56.136;40.360;2022-08-21T10:37:01;100549.88;;;29.42;19.63
26487;BME280;14425;56.136;40.360;2022-08-21T10:39:37;100540.31;;;29.96;19.32
26487;BME280;14425;56.136;40.360;2022-08-21T10:44:42;100539.25;;;30.85;19.69
26487;BME280;14425;56.136;40.360;2022-08-21T10:47:15;100550.97;;;29.96;19.86
26487;BME280;14425;56.136;40.360;2022-08-21T11:00:20;100541.63;;;30.11;19.48
26487;BME280;14425;56.136;40.360;2022-08-21T11:05:29;100528.63;;;29.42;19.98
26487;BME280;14425;56.136;40.360;2022-08-21T11:10:32;100531.53;;;29.63;20.53
26487;BME280;14425;56.136;40.360;2022-08-21T11:13:04;100528.38;;;29.50;19.89
26487;BME280;14425;56.136;40.360;2022-08-21T11:18:24;100534.13;;;29.66;20.05
26487;BME280;14425;56.136;40.360;2022-08-21T11:20:57;100522.09;;;29.53;20.04
26487;BME280;14425;56.136;40.360;2022-08-21T11:24:09;100520.94;;;30.21;20.13
26487;BME280;14425;56.136;40.360;2022-08-21T11:29:12;100523.75;;;30.16;20.23
26487;BME280;14425;56.136;40.360;2022-08-21T11:31:50;100512.84;;;30.52;20.29
26487;BME280;14425;56.136;40.360;2022-08-21T11:39:26;100515.09;;;30.65;21.25
26487;BME280;14425;56.136;40.360;2022-08-21T11:47:12;100516.47;;;29.93;21.23
26487;BME280;14425;56.136;40.360;2022-08-21T11:52:37;100529.13;;;29.85;20.96
26487;BME280;14425;56.136;40.360;2022-08-21T12:00:45;100528.94;;;28.97;22.36
26487;BME280;14425;56.136;40.360;2022-08-21T12:06:08;100505.22;;;29.85;21.48
26487;BME280;14425;56.136;40.360;2022-08-21T12:08:40;100512.19;;;30.17;21.21
26487;BME280;14425;56.136;40.360;2022-08-21T12:13:59;100498.03;;;28.94;21.28
26487;BME280;14425;56.136;40.360;2022-08-21T12:16:37;100502.56;;;28.91;21.77
26487;BME280;14425;56.136;40.360;2022-08-21T12:19:03;100504.59;;;29.14;20.83
26487;BME280;14425;56.136;40.360;2022-08-21T12:21:30;100500.88;;;28.87;20.70
26487;BME280;14425;56.136;40.360;2022-08-21T12:24:04;100492.06;;;29.19;20.36
26487;BME280;14425;56.136;40.360;2022-08-21T12:26:34;100498.66;;;29.37;20.21
26487;BME280;14425;56.136;40.360;2022-08-21T12:29:05;100499.63;;;29.33;20.24
26487;BME280;14425;56.136;40.360;2022-08-21T12:31:33;100497.84;;;29.02;20.80
26487;BME280;14425;56.136;40.360;2022-08-21T12:34:00;100491.09;;;29.53;20.61
26487;BME280;14425;56.136;40.360;2022-08-21T12:36:44;100492.72;;;29.89;20.10
26487;BME280;14425;56.136;40.360;2022-08-21T12:39:37;100489.44;;;29.49;20.05
26487;BME280;14425;56.136;40.360;2022-08-21T12:42:19;100489.19;;;28.61;20.34
26487;BME280;14425;56.136;40.360;2022-08-21T12:44:48;100487.44;;;28.93;20.36
26487;BME280;14425;56.136;40.360;2022-08-21T12:47:27;100485.09;;;28.82;20.85
26487;BME280;14425;56.136;40.360;2022-08-21T12:50:16;100477.81;;;28.54;21.05
26487;BME280;14425;56.136;40.360;2022-08-21T12:55:26;100481.63;;;28.79;20.94
26487;BME280;14425;56.136;40.360;2022-08-21T12:57:51;100479.25;;;28.32;19.95
26487;BME280;14425;56.136;40.360;2022-08-21T13:00:20;100479.03;;;28.05;20.61
26487;BME280;14425;56.136;40.360;2022-08-21T13:03:01;100475.41;;;28.44;20.77
26487;BME280;14425;56.136;40.360;2022-08-21T13:05:30;100472.03;;;28.38;20.24
26487;BME280;14425;56.136;40.360;2022-08-21T13:07:58;100474.38;;;28.15;20.71
26487;BME280;14425;56.136;40.360;2022-08-21T13:10:29;100466.19;;;28.26;20.41
26487;BME280;14425;56.136;40.360;2022-08-21T13:12:57;100459.44;;;28.81;20.13
26487;BME280;14425;56.136;40.360;2022-08-21T13:15:31;100471.84;;;28.46;20.12
26487;BME280;14425;56.136;40.360;2022-08-21T13:17:59;100479.31;;;27.91;20.78
26487;BME280;14425;56.136;40.360;2022-08-21T13:20:37;100477.63;;;27.87;21.35
26487;BME280;14425;56.136;40.360;2022-08-21T13:23:29;100484.75;;;27.85;20.99
26487;BME280;14425;56.136;40.360;2022-08-21T13:25:56;100476.28;;;28.10;20.83
26487;BME280;14425;56.136;40.360;2022-08-21T13:28:31;100466.53;;;28.10;20.61
26487;BME280;14425;56.136;40.360;2022-08-21T13:30:58;100475.53;;;28.03;20.61
26487;BME280;14425;56.136;40.360;2022-08-21T13:33:26;100469.97;;;28.50;20.61
26487;BME280;14425;56.136;40.360;2022-08-21T13:38:22;100466.75;;;28.37;20.24
26487;BME280;14425;56.136;40.360;2022-08-21T13:40:55;100476.13;;;28.16;20.75
26487;BME280;14425;56.136;40.360;2022-08-21T13:43:27;100475.66;;;27.98;20.63
26487;BME280;14425;56.136;40.360;2022-08-21T13:45:54;100469.50;;;27.96;20.94
26487;BME280;14425;56.136;40.360;2022-08-21T13:48:21;100478.19;;;28.03;20.90
26487;BME280;14425;56.136;40.360;2022-08-21T13:50:48;100463.13;;;28.05;20.93
26487;BME280;14425;56.136;40.360;2022-08-21T13:53:22;100463.19;;;28.02;21.15
26487;BME280;14425;56.136;40.360;2022-08-21T13:55:48;100467.25;;;27.78;21.42
26487;BME280;14425;56.136;40.360;2022-08-21T13:58:23;100463.38;;;27.94;21.26
26487;BME280;14425;56.136;40.360;2022-08-21T14:01:00;100465.94;;;27.97;21.13
26487;BME280;14425;56.136;40.360;2022-08-21T14:03:31;100469.00;;;27.77;20.96
26487;BME280;14425;56.136;40.360;2022-08-21T14:05:58;100465.19;;;27.52;21.75
26487;BME280;14425;56.136;40.360;2022-08-21T14:08:26;100462.88;;;27.36;21.15
26487;BME280;14425;56.136;40.360;2022-08-21T14:13:41;100455.72;;;26.95;21.50
26487;BME280;14425;56.136;40.360;2022-08-21T14:16:16;100464.03;;;27.21;21.46
26487;BME280;14425;56.136;40.360;2022-08-21T14:21:34;100458.28;;;26.98;21.51
26487;BME280;14425;56.136;40.360;2022-08-21T14:24:07;100460.81;;;27.04;21.61
26487;BME280;14425;56.136;40.360;2022-08-21T14:26:35;100459.09;;;27.03;21.47
26487;BME280;14425;56.136;40.360;2022-08-21T14:29:01;100460.72;;;27.10;21.56
26487;BME280;14425;56.136;40.360;2022-08-21T14:31:30;100454.13;;;26.84;21.96